Terminal Aerodrome Forecast
Issued by NWS

Home | Current Version | Previous Version | Text Only | Print | Product List | Glossary On
Versions: 1 2 3 4 5 6 7 8 9 10 11 12 13 14 15 16 17 18 19 20 21 22 23 24
000
FTUS44 KOUN 242320
TAFWWR
TAF
KWWR 242320Z 2500/2524 16010KT P6SM SCT050 BKN120 PROB30 2509/2512
      5SM TSRA BKN050CB
     FM251400 06004KT P6SM SCT060 BKN120
      AMD NOT SKED=

USA.gov is the U.S. government's official web portal to all federal, state and local government web resources and services.